Time;durP1;ratioP1;P1;durP2;ratioP2;P2;SDS_P1;SDS_P2;PMS_P1;PMS_P2;Temp;Humidity;BMP_temperature;BMP_pressure;BME280_temperature;BME280_humidity;BME280_pressure;Samples;Min_cycle;Max_cycle;Signal;HPM_P1;HPM_P2
2022/08/07 00:02:04;;;;;;;8.77;6.72;;;10.70;99.90;;;;;;5041405;28;20110;-86
2022/08/07 00:04:29;;;;;;;7.53;6.40;;;10.70;99.90;;;;;;5046514;28;20564;-88
2022/08/07 00:06:55;;;;;;;7.50;5.07;;;10.60;99.90;;;;;;5014441;28;20760;-86
2022/08/07 00:09:21;;;;;;;8.68;6.68;;;10.60;99.90;;;;;;5016415;28;20453;-86
2022/08/07 00:11:47;;;;;;;9.43;7.22;;;10.70;99.90;;;;;;5036556;28;20037;-87
2022/08/07 00:14:13;;;;;;;8.57;6.70;;;10.60;99.90;;;;;;5032145;28;20555;-87
2022/08/07 00:16:38;;;;;;;7.70;6.32;;;10.70;99.90;;;;;;5022689;28;20045;-87
2022/08/07 00:19:04;;;;;;;10.90;7.30;;;10.60;99.90;;;;;;5019617;28;20072;-86
2022/08/07 00:21:30;;;;;;;7.85;6.63;;;10.60;99.90;;;;;;5013087;28;20048;-87
2022/08/07 00:23:56;;;;;;;8.25;6.35;;;10.60;99.90;;;;;;5015382;28;20037;-85
2022/08/07 00:26:22;;;;;;;7.47;6.05;;;10.50;99.90;;;;;;5016624;28;20048;-86
2022/08/07 00:28:47;;;;;;;6.90;6.15;;;10.50;99.90;;;;;;5014410;28;20405;-87
2022/08/07 00:31:15;;;;;;;9.93;6.72;;;10.60;99.90;;;;;;5012520;28;20041;-88
2022/08/07 00:33:41;;;;;;;7.07;5.72;;;10.50;99.90;;;;;;5014277;28;20148;-86
2022/08/07 00:36:07;;;;;;;7.68;6.28;;;10.50;99.90;;;;;;5015406;28;20259;-87
2022/08/07 00:38:35;;;;;;;8.77;6.05;;;10.40;99.90;;;;;;5032335;28;20041;-87
2022/08/07 00:41:02;;;;;;;10.75;7.57;;;10.40;99.90;;;;;;5030740;28;20045;-88
2022/08/07 00:43:31;;;;;;;9.82;6.70;;;10.40;99.90;;;;;;5037165;28;20476;-87
2022/08/07 00:45:58;;;;;;;10.27;7.10;;;10.40;99.90;;;;;;5019315;28;20431;-87
2022/08/07 00:48:24;;;;;;;8.30;7.03;;;10.30;99.90;;;;;;5041543;28;20117;-86
2022/08/07 00:50:50;;;;;;;8.45;6.65;;;10.40;99.90;;;;;;5035694;28;20146;-87
2022/08/07 00:53:16;;;;;;;8.18;6.72;;;10.40;99.90;;;;;;5015007;28;20091;-86
2022/08/07 00:55:42;;;;;;;11.00;6.88;;;10.30;1.00;;;;;;5032062;28;20076;-88
2022/08/07 00:58:07;;;;;;;9.70;6.90;;;10.30;99.90;;;;;;5036594;28;20348;-86
2022/08/07 01:00:35;;;;;;;9.68;6.68;;;10.20;99.90;;;;;;5012003;28;20069;-87
2022/08/07 01:03:01;;;;;;;7.68;6.63;;;10.20;1.00;;;;;;5030551;28;20406;-87
2022/08/07 01:05:28;;;;;;;7.68;6.55;;;10.20;99.90;;;;;;5019879;28;20092;-87
2022/08/07 01:07:54;;;;;;;9.75;7.32;;;10.20;99.90;;;;;;5014976;28;20126;-87
2022/08/07 01:10:20;;;;;;;8.88;7.13;;;10.10;99.90;;;;;;5010555;28;20036;-86
2022/08/07 01:12:48;;;;;;;7.40;5.53;;;10.10;99.90;;;;;;5012226;28;20044;-87
2022/08/07 01:15:14;;;;;;;7.05;5.93;;;10.10;99.90;;;;;;5032717;28;21250;-88
2022/08/07 01:17:40;;;;;;;10.70;7.53;;;10.00;99.90;;;;;;5035776;28;20562;-87
2022/08/07 01:20:10;;;;;;;11.75;8.25;;;10.10;99.90;;;;;;5021967;28;20220;-87
2022/08/07 01:22:38;;;;;;;12.27;8.02;;;10.00;1.00;;;;;;5029415;28;20049;-87
2022/08/07 01:25:08;;;;;;;12.02;8.60;;;10.10;52.20;;;;;;5011569;28;20096;-87
2022/08/07 01:27:34;;;;;;;11.80;9.40;;;10.10;7.10;;;;;;5015427;28;20904;-88
2022/08/07 01:30:00;;;;;;;14.38;9.38;;;10.10;43.70;;;;;;5040348;28;20052;-87
2022/08/07 01:32:26;;;;;;;12.93;9.02;;;10.20;37.40;;;;;;5028227;28;20053;-88
2022/08/07 01:34:53;;;;;;;12.60;9.68;;;10.20;70.80;;;;;;5020797;28;20044;-87
2022/08/07 01:37:19;;;;;;;11.73;9.65;;;10.20;99.90;;;;;;5015274;28;20101;-89
2022/08/07 01:39:46;;;;;;;13.73;9.40;;;10.20;99.90;;;;;;5015444;28;20103;-88
2022/08/07 01:42:13;;;;;;;11.88;9.02;;;10.20;95.30;;;;;;5031748;28;20045;-86
2022/08/07 01:44:40;;;;;;;9.45;7.63;;;10.20;70.80;;;;;;5015171;28;20099;-83
2022/08/07 01:47:07;;;;;;;12.40;7.88;;;10.10;1.00;;;;;;5011690;28;20063;-83
2022/08/07 01:49:33;;;;;;;10.07;8.02;;;10.20;1.00;;;;;;5035440;28;20249;-83
2022/08/07 01:52:04;;;;;;;10.63;8.40;;;10.20;1.00;;;;;;5027957;28;20045;-83
2022/08/07 01:54:35;;;;;;;10.45;7.97;;;10.20;1.00;;;;;;5036490;28;20052;-83
2022/08/07 01:57:12;;;;;;;11.23;7.57;;;10.20;1.00;;;;;;5017973;28;20084;-83
2022/08/07 01:59:54;;;;;;;8.93;6.95;;;10.10;1.00;;;;;;5016401;28;20037;-83
2022/08/07 02:02:29;;;;;;;11.18;7.57;;;10.10;1.00;;;;;;5035617;28;20049;-83
2022/08/07 02:05:02;;;;;;;13.18;8.65;;;10.10;1.00;;;;;;5011765;28;20593;-83
2022/08/07 02:07:33;;;;;;;8.48;7.03;;;10.10;19.00;;;;;;5011940;28;20423;-83
2022/08/07 02:10:01;;;;;;;9.90;7.72;;;10.00;1.00;;;;;;5049948;28;20052;-83
2022/08/07 02:12:32;;;;;;;9.88;7.18;;;10.00;1.00;;;;;;5011714;28;20122;-87
2022/08/07 02:15:01;;;;;;;8.77;6.25;;;10.00;1.00;;;;;;5013032;28;20049;-82
2022/08/07 02:17:28;;;;;;;9.13;7.10;;;10.00;99.90;;;;;;5020676;28;20038;-83
2022/08/07 02:19:55;;;;;;;9.23;7.38;;;10.00;1.00;;;;;;5036339;28;20044;-83
2022/08/07 02:22:23;;;;;;;9.85;7.57;;;10.00;1.00;;;;;;5008291;28;20041;-83
2022/08/07 02:24:51;;;;;;;9.63;7.28;;;9.90;1.00;;;;;;5054859;28;20049;-83
2022/08/07 02:27:21;;;;;;;10.45;7.15;;;10.00;1.00;;;;;;5012488;28;20432;-83
2022/08/07 02:29:49;;;;;;;11.00;7.80;;;9.90;1.00;;;;;;5014611;28;20389;-83
2022/08/07 02:32:16;;;;;;;6.40;4.35;;;9.90;1.00;;;;;;5035909;28;20030;-82
2022/08/07 02:34:43;;;;;;;13.18;9.40;;;9.80;1.00;;;;;;5016497;28;20068;-83
2022/08/07 02:37:11;;;;;;;7.78;6.53;;;9.70;13.20;;;;;;5009952;28;20482;-83
2022/08/07 02:39:41;;;;;;;8.77;6.32;;;9.70;26.40;;;;;;5016372;28;20045;-83
2022/08/07 02:42:07;;;;;;;7.63;6.13;;;9.60;1.00;;;;;;5022486;28;20045;-83
2022/08/07 02:44:38;;;;;;;9.05;5.65;;;9.60;1.00;;;;;;5016735;28;20041;-83
2022/08/07 02:47:05;;;;;;;8.07;6.25;;;9.60;1.00;;;;;;5005873;28;20107;-82
2022/08/07 02:49:32;;;;;;;5.50;4.88;;;9.60;1.00;;;;;;5030696;28;20323;-83
2022/08/07 02:52:02;;;;;;;6.50;5.07;;;9.50;99.90;;;;;;5051925;28;20039;-83
2022/08/07 02:54:31;;;;;;;5.95;5.05;;;9.50;99.90;;;;;;5030440;28;20645;-83
2022/08/07 02:57:00;;;;;;;8.68;6.32;;;9.50;99.90;;;;;;5023290;28;20044;-83
2022/08/07 02:59:28;;;;;;;11.18;6.88;;;9.50;99.90;;;;;;5029467;28;20033;-83
2022/08/07 03:01:55;;;;;;;8.45;6.53;;;9.50;1.00;;;;;;5010539;28;20141;-83
2022/08/07 03:04:22;;;;;;;9.65;6.22;;;9.50;1.00;;;;;;5038712;28;20037;-82
2022/08/07 03:06:50;;;;;;;11.27;7.50;;;9.50;1.00;;;;;;5027115;28;20033;-83
2022/08/07 03:09:18;;;;;;;9.00;7.13;;;9.50;1.00;;;;;;5012250;28;20040;-83
2022/08/07 03:11:44;;;;;;;9.35;7.25;;;9.50;1.00;;;;;;5035633;28;20094;-83
2022/08/07 03:14:11;;;;;;;10.75;7.88;;;9.50;1.00;;;;;;5009433;28;20129;-83
2022/08/07 03:16:37;;;;;;;11.73;7.50;;;9.40;1.00;;;;;;5013303;28;20425;-83
2022/08/07 03:19:03;;;;;;;9.32;7.00;;;9.40;1.00;;;;;;5026533;28;20103;-83
2022/08/07 03:21:29;;;;;;;9.38;6.43;;;9.40;1.00;;;;;;5007516;28;20042;-83
2022/08/07 03:23:58;;;;;;;10.45;6.22;;;9.40;1.00;;;;;;5023048;28;20124;-83
2022/08/07 03:26:27;;;;;;;7.45;4.93;;;9.30;1.00;;;;;;5009336;28;20405;-83
2022/08/07 03:28:55;;;;;;;9.50;6.82;;;9.30;1.00;;;;;;5025477;28;20126;-83
2022/08/07 03:31:25;;;;;;;8.68;6.13;;;9.30;1.00;;;;;;5012982;28;20076;-83
2022/08/07 03:34:00;;;;;;;8.35;5.78;;;9.30;1.00;;;;;;5028862;28;20071;-82
2022/08/07 03:36:28;;;;;;;9.57;6.93;;;9.30;1.00;;;;;;5026882;28;20388;-83
2022/08/07 03:39:00;;;;;;;8.40;6.68;;;9.30;1.00;;;;;;5025259;28;20045;-83
2022/08/07 03:41:28;;;;;;;8.10;5.15;;;9.30;1.00;;;;;;5027128;28;20037;-83
2022/08/07 03:43:55;;;;;;;7.95;6.30;;;9.20;1.00;;;;;;5053949;28;20037;-83
2022/08/07 03:46:22;;;;;;;9.07;6.47;;;9.30;1.60;;;;;;5031919;28;20068;-83
2022/08/07 03:48:49;;;;;;;8.23;6.80;;;9.30;1.00;;;;;;5023177;28;20406;-83
2022/08/07 03:51:16;;;;;;;7.93;6.30;;;9.30;1.00;;;;;;5012596;28;20051;-82
2022/08/07 03:53:42;;;;;;;11.07;7.00;;;9.30;1.00;;;;;;5036519;28;20048;-83
2022/08/07 03:56:12;;;;;;;9.38;6.93;;;9.30;1.00;;;;;;5015781;28;20041;-83
2022/08/07 03:58:47;;;;;;;7.47;5.63;;;9.30;1.00;;;;;;5012619;28;20047;-83
2022/08/07 04:01:17;;;;;;;9.55;7.22;;;9.30;1.00;;;;;;5032533;28;20057;-82
2022/08/07 04:03:51;;;;;;;7.75;6.60;;;9.30;8.20;;;;;;5019325;28;20038;-84
2022/08/07 04:06:17;;;;;;;10.00;7.13;;;9.30;11.00;;;;;;5012941;28;20532;-83
2022/08/07 04:08:50;;;;;;;10.00;7.25;;;9.30;5.60;;;;;;5015021;28;20051;-83
2022/08/07 04:11:19;;;;;;;10.00;6.72;;;9.30;43.70;;;;;;5013147;28;20368;-83
2022/08/07 04:13:48;;;;;;;14.13;7.88;;;9.30;60.20;;;;;;5039171;28;20056;-83
2022/08/07 04:16:14;;;;;;;11.20;7.40;;;9.30;47.10;;;;;;5021367;28;20045;-83
2022/08/07 04:21:48;;;;;;;9.77;7.03;;;9.40;16.80;;;;;;5053911;28;20123;-83
2022/08/07 04:24:15;;;;;;;9.82;7.40;;;9.40;19.40;;;;;;5007769;28;20489;-83
2022/08/07 04:26:42;;;;;;;9.43;6.97;;;9.50;58.60;;;;;;5010456;28;20527;-83
2022/08/07 04:29:10;;;;;;;11.05;6.35;;;9.50;89.50;;;;;;5028542;28;20363;-83
2022/08/07 04:31:40;;;;;;;9.20;6.50;;;9.50;99.90;;;;;;5015220;28;20072;-83
2022/08/07 04:34:07;;;;;;;9.50;6.38;;;9.50;89.50;;;;;;5038717;28;20037;-83
2022/08/07 04:36:36;;;;;;;10.57;6.82;;;9.60;36.90;;;;;;5015487;28;20041;-83
2022/08/07 04:39:04;;;;;;;9.18;6.82;;;9.70;32.60;;;;;;5051385;28;20045;-83
2022/08/07 04:41:30;;;;;;;10.32;6.85;;;9.70;5.10;;;;;;5030890;28;20359;-83
2022/08/07 04:43:56;;;;;;;12.18;6.80;;;9.80;1.00;;;;;;5013084;28;20128;-83
2022/08/07 04:46:40;;;;;;;9.48;6.80;;;9.80;1.00;;;;;;5028220;28;20041;-83
2022/08/07 04:49:14;;;;;;;13.32;7.82;;;9.80;1.00;;;;;;5030844;28;20041;-83
2022/08/07 04:51:49;;;;;;;11.45;7.65;;;9.90;1.00;;;;;;5024175;28;20041;-83
2022/08/07 04:54:42;;;;;;;11.20;7.35;;;10.00;8.80;;;;;;5018729;28;20036;-83
2022/08/07 04:57:30;;;;;;;9.65;7.22;;;10.10;17.20;;;;;;5022555;28;20037;-83
2022/08/07 05:00:05;;;;;;;10.23;7.05;;;10.10;16.40;;;;;;5028445;28;20056;-83
2022/08/07 05:02:51;;;;;;;9.80;6.80;;;10.20;30.50;;;;;;5012952;28;20068;-83
2022/08/07 05:05:25;;;;;;;9.13;6.40;;;10.40;6.00;;;;;;5018811;28;20041;-83
2022/08/07 05:08:04;;;;;;;8.90;6.63;;;10.50;1.80;;;;;;5026538;28;20045;-83
2022/08/07 05:10:38;;;;;;;10.77;6.57;;;10.60;1.00;;;;;;5036755;28;20041;-84
2022/08/07 05:13:13;;;;;;;9.35;6.82;;;10.70;14.00;;;;;;5010362;28;20717;-83
2022/08/07 05:15:42;;;;;;;10.75;7.28;;;10.80;1.00;;;;;;5018188;28;20587;-83
2022/08/07 05:18:44;;;;;;;9.77;7.20;;;10.90;1.00;;;;;;5032494;28;20052;-84
2022/08/07 05:21:13;;;;;;;9.43;7.13;;;11.00;1.00;;;;;;5024160;28;21044;-83
2022/08/07 05:23:47;;;;;;;12.27;7.40;;;11.10;1.00;;;;;;5036155;28;20102;-83
2022/08/07 05:26:19;;;;;;;9.93;7.85;;;11.30;1.00;;;;;;5027387;28;20029;-84
2022/08/07 05:28:50;;;;;;;9.65;7.07;;;11.40;41.10;;;;;;5022384;28;20117;-83
2022/08/07 05:31:18;;;;;;;9.05;7.38;;;11.50;1.00;;;;;;5012600;28;20047;-84
2022/08/07 05:33:45;;;;;;;8.55;6.63;;;11.60;3.90;;;;;;5012480;28;20461;-84
2022/08/07 05:36:12;;;;;;;9.30;7.88;;;11.80;1.00;;;;;;5028323;28;20531;-83
2022/08/07 05:38:39;;;;;;;10.23;7.25;;;11.90;1.00;;;;;;5011798;28;20040;-83
2022/08/07 05:41:07;;;;;;;9.45;7.55;;;12.00;1.00;;;;;;5031108;28;20472;-84
2022/08/07 05:43:33;;;;;;;12.20;8.00;;;12.10;29.50;;;;;;5030311;28;20709;-83
2022/08/07 05:46:01;;;;;;;10.30;7.90;;;12.20;1.00;;;;;;5034678;28;20045;-83
2022/08/07 05:48:28;;;;;;;10.10;7.75;;;12.40;23.60;;;;;;5018459;28;20041;-83
2022/08/07 05:50:55;;;;;;;11.18;7.93;;;12.60;1.00;;;;;;5030876;28;20029;-84
2022/08/07 05:53:24;;;;;;;10.05;7.97;;;12.70;99.90;;;;;;5008807;28;20033;-83
2022/08/07 05:55:51;;;;;;;9.80;7.63;;;12.80;99.90;;;;;;5028264;28;20128;-83
2022/08/07 05:58:18;;;;;;;9.43;7.18;;;13.00;99.90;;;;;;5030598;28;20319;-83
2022/08/07 06:00:47;;;;;;;10.65;7.70;;;13.10;99.90;;;;;;5052571;28;20049;-84
2022/08/07 06:03:17;;;;;;;10.98;7.88;;;13.20;99.90;;;;;;5025182;28;20060;-84
2022/08/07 06:05:45;;;;;;;10.68;7.38;;;13.30;99.90;;;;;;5015886;28;20033;-84
2022/08/07 06:08:11;;;;;;;10.50;7.25;;;13.50;99.90;;;;;;5010382;28;20540;-83
2022/08/07 06:10:37;;;;;;;11.18;6.88;;;13.60;99.90;;;;;;5010684;28;20043;-83
2022/08/07 06:13:04;;;;;;;9.50;7.22;;;13.80;99.90;;;;;;5011884;28;20045;-84
2022/08/07 06:15:34;;;;;;;9.23;7.32;;;13.90;99.90;;;;;;5013785;28;20096;-84
2022/08/07 06:18:01;;;;;;;8.85;7.03;;;14.00;91.20;;;;;;5018620;28;20067;-84
2022/08/07 06:20:29;;;;;;;11.95;7.70;;;14.10;18.40;;;;;;5013440;28;20033;-84
2022/08/07 06:22:56;;;;;;;9.25;7.38;;;14.20;1.00;;;;;;5008822;28;20460;-84
2022/08/07 06:25:22;;;;;;;10.82;7.38;;;14.30;1.00;;;;;;5014495;28;20186;-84
2022/08/07 06:28:08;;;;;;;9.82;7.43;;;14.50;1.00;;;;;;5010816;28;20036;-83
2022/08/07 06:30:37;;;;;;;;;;;14.60;1.00;;;;;;5012203;28;20116;-84
2022/08/07 06:33:05;;;;;;;8.80;7.03;;;14.80;99.90;;;;;;5027068;28;19928;-84
2022/08/07 06:35:35;;;;;;;7.90;6.30;;;14.90;99.90;;;;;;5027761;28;20115;-84
2022/08/07 06:38:02;;;;;;;8.82;6.53;;;15.00;99.90;;;;;;5032439;28;20045;-84
2022/08/07 06:40:41;;;;;;;7.65;6.40;;;15.10;99.90;;;;;;5008589;28;20068;-84
2022/08/07 06:43:10;;;;;;;7.15;6.20;;;15.20;99.90;;;;;;5017555;28;20112;-84
2022/08/07 06:45:36;;;;;;;11.48;6.35;;;15.40;99.90;;;;;;5036540;28;20100;-84
2022/08/07 06:48:05;;;;;;;8.70;6.22;;;15.50;99.90;;;;;;5033255;28;20342;-84
2022/08/07 06:50:33;;;;;;;9.20;6.07;;;15.60;99.90;;;;;;5017589;28;20068;-85
2022/08/07 06:53:00;;;;;;;9.30;6.32;;;15.80;99.90;;;;;;5012934;28;20506;-84
2022/08/07 06:55:29;;;;;;;10.73;6.90;;;15.90;99.90;;;;;;5012688;28;20449;-83
2022/08/07 06:57:59;;;;;;;9.05;5.72;;;15.90;99.90;;;;;;5032505;28;20508;-84
2022/08/07 07:00:29;;;;;;;11.18;6.53;;;16.00;99.90;;;;;;5033958;28;20128;-84
2022/08/07 07:02:56;;;;;;;7.95;5.97;;;16.20;99.90;;;;;;5036648;28;20036;-84
2022/08/07 07:05:25;;;;;;;7.32;5.63;;;16.30;99.90;;;;;;5014372;28;20065;-84
2022/08/07 07:07:50;;;;;;;7.25;5.30;;;16.40;99.90;;;;;;5008290;28;20065;-84
2022/08/07 07:10:32;;;;;;;6.15;4.78;;;16.40;63.60;;;;;;5008691;28;20116;-84
2022/08/07 07:13:12;;;;;;;6.60;4.50;;;16.50;1.00;;;;;;5011277;28;20045;-84
2022/08/07 07:15:48;;;;;;;7.20;4.40;;;16.70;1.00;;;;;;5027631;28;20395;-84
2022/08/07 07:18:33;;;;;;;5.63;4.25;;;16.80;1.00;;;;;;5018599;28;20444;-84
2022/08/07 07:21:03;;;;;;;4.47;3.47;;;16.90;1.00;;;;;;5011626;28;20060;-85
2022/08/07 07:23:33;;;;;;;6.65;3.85;;;16.90;99.90;;;;;;5015171;28;20127;-85
2022/08/07 07:26:03;;;;;;;4.13;3.50;;;16.90;99.90;;;;;;5030269;28;20071;-84
2022/08/07 07:28:35;;;;;;;4.10;3.35;;;17.10;99.90;;;;;;5039541;28;20064;-84
2022/08/07 07:31:12;;;;;;;4.57;3.63;;;17.20;99.90;;;;;;5018442;28;20048;-85
2022/08/07 07:33:41;;;;;;;3.90;3.20;;;17.30;99.90;;;;;;5013683;28;20040;-84
2022/08/07 07:36:09;;;;;;;5.18;3.50;;;17.30;99.90;;;;;;5017992;28;20059;-85
2022/08/07 07:38:39;;;;;;;3.50;3.08;;;17.50;99.90;;;;;;5019216;28;20493;-84
2022/08/07 07:41:08;;;;;;;4.22;2.70;;;17.60;99.90;;;;;;5028476;28;20075;-84
2022/08/07 07:43:38;;;;;;;3.65;2.20;;;17.70;99.90;;;;;;5018740;28;20290;-84
2022/08/07 07:46:06;;;;;;;3.22;2.65;;;17.60;99.90;;;;;;5020425;28;20041;-84
2022/08/07 07:48:33;;;;;;;3.85;2.80;;;17.70;99.90;;;;;;5052249;28;20115;-84
2022/08/07 07:51:04;;;;;;;4.05;2.97;;;17.80;99.90;;;;;;5020020;28;20037;-84
2022/08/07 07:53:31;;;;;;;3.92;2.90;;;17.80;99.90;;;;;;5018480;28;20112;-84
2022/08/07 07:55:58;;;;;;;3.40;3.08;;;17.80;99.90;;;;;;5034877;28;20503;-84
2022/08/07 07:58:36;;;;;;;4.28;3.20;;;18.00;99.90;;;;;;5014310;28;20298;-85
2022/08/07 08:01:03;;;;;;;5.55;3.90;;;18.20;99.90;;;;;;5038941;28;20380;-85
2022/08/07 08:03:32;;;;;;;5.35;3.60;;;18.10;99.90;;;;;;5053814;28;20049;-84
2022/08/07 08:05:59;;;;;;;4.50;3.13;;;18.00;99.90;;;;;;5022970;28;20047;-84
2022/08/07 08:08:27;;;;;;;4.75;3.40;;;18.10;99.90;;;;;;5017222;28;20033;-84
2022/08/07 08:10:55;;;;;;;5.35;3.45;;;18.20;99.90;;;;;;5019834;28;20449;-85
2022/08/07 08:13:26;;;;;;;5.30;3.63;;;18.30;99.90;;;;;;5034465;28;20055;-85
2022/08/07 08:15:53;;;;;;;5.95;3.67;;;18.40;99.90;;;;;;5013679;28;20099;-84
2022/08/07 08:18:21;;;;;;;5.07;3.72;;;18.40;99.90;;;;;;5020870;28;20041;-84
2022/08/07 08:20:48;;;;;;;4.05;3.58;;;18.60;99.90;;;;;;5028819;28;20132;-84
2022/08/07 08:28:55;;;;;;;4.93;3.95;;;18.50;99.90;;;;;;5043416;28;20282;-84
2022/08/07 08:31:24;;;;;;;5.53;3.80;;;18.60;99.90;;;;;;5031445;28;20485;-85
2022/08/07 08:33:56;;;;;;;5.45;3.75;;;18.80;99.90;;;;;;5020995;28;20076;-85
2022/08/07 08:36:26;;;;;;;3.83;3.20;;;19.00;99.90;;;;;;5013765;28;20047;-85
2022/08/07 08:38:55;;;;;;;5.05;3.70;;;19.20;99.90;;;;;;5031965;28;20051;-85
2022/08/07 08:41:30;;;;;;;5.68;3.88;;;19.30;99.90;;;;;;5016156;28;20065;-84
2022/08/07 08:44:22;;;;;;;4.35;3.80;;;19.20;71.20;;;;;;5019141;28;20437;-85
2022/08/07 08:46:59;;;;;;;3.45;3.15;;;19.50;99.90;;;;;;5012345;28;20378;-85
2022/08/07 08:50:02;;;;;;;4.97;3.42;;;19.60;78.70;;;;;;5017644;28;20418;-85
2022/08/07 08:52:33;;;;;;;5.95;3.25;;;19.70;89.90;;;;;;5016272;28;20048;-85
2022/08/07 08:55:08;;;;;;;3.70;3.17;;;19.70;36.50;;;;;;5019226;28;20051;-86
2022/08/07 08:57:43;;;;;;;;;;;20.10;32.90;;;;;;5028599;28;20110;-86
2022/08/07 09:00:11;;;;;;;4.18;3.10;;;20.00;1.00;;;;;;5014859;28;20580;-85
2022/08/07 09:02:48;;;;;;;3.53;3.05;;;20.30;1.00;;;;;;5012483;28;20041;-86
2022/08/07 09:05:38;;;;;;;4.05;3.22;;;20.30;1.00;;;;;;5038749;28;20037;-85
2022/08/07 09:08:35;;;;;;;4.30;3.17;;;20.20;1.00;;;;;;5019463;28;20033;-86
2022/08/07 09:11:23;;;;;;;4.43;3.22;;;20.70;1.00;;;;;;5017575;28;20071;-86
2022/08/07 09:14:47;;;;;;;3.50;3.00;;;20.70;1.00;;;;;;5023252;28;20106;-86
2022/08/07 09:17:41;;;;;;;4.65;2.85;;;21.30;1.00;;;;;;5001151;28;20076;-86
2022/08/07 09:20:15;;;;;;;3.60;2.90;;;21.60;1.00;;;;;;5022953;28;20213;-87
2022/08/07 09:22:53;;;;;;;3.63;3.10;;;21.30;99.90;;;;;;5019275;28;20041;-86
2022/08/07 09:25:28;;;;;;;4.72;3.17;;;21.20;99.90;;;;;;5018064;28;20077;-84
2022/08/07 09:28:05;;;;;;;4.55;3.00;;;21.60;99.90;;;;;;5041138;28;20476;-84
2022/08/07 09:30:42;;;;;;;4.50;2.85;;;21.70;99.90;;;;;;5040657;28;20033;-85
2022/08/07 09:33:16;;;;;;;4.07;2.78;;;21.80;99.90;;;;;;5023563;28;20503;-85
2022/08/07 09:36:00;;;;;;;2.85;2.53;;;22.00;99.90;;;;;;5035054;28;20045;-86
2022/08/07 09:39:03;;;;;;;3.60;2.70;;;21.60;99.90;;;;;;5020345;28;20045;-86
2022/08/07 09:41:59;;;;;;;2.90;2.15;;;21.40;99.90;;;;;;5034745;28;20153;-87
2022/08/07 09:44:55;;;;;;;3.17;2.50;;;21.00;99.90;;;;;;5027240;28;20038;-87
2022/08/07 09:47:58;;;;;;;3.47;2.38;;;21.20;99.90;;;;;;5031481;28;20618;-85
2022/08/07 09:50:59;;;;;;;2.63;2.20;;;20.70;99.90;;;;;;5029053;28;20041;-86
2022/08/07 09:53:27;;;;;;;2.60;2.10;;;20.50;99.90;;;;;;4992488;28;20073;-86
2022/08/07 09:56:44;;;;;;;3.28;2.40;;;20.80;99.90;;;;;;5015545;28;20045;-86
2022/08/07 09:59:17;;;;;;;;;;;21.00;99.90;;;;;;4997969;28;20064;-86
2022/08/07 10:01:52;;;;;;;3.80;2.38;;;20.90;99.90;;;;;;5029389;28;19929;-87
2022/08/07 10:04:32;;;;;;;;;;;20.90;99.90;;;;;;5020215;28;20045;-85
2022/08/07 10:07:20;;;;;;;3.45;2.20;;;20.90;99.90;;;;;;5034498;28;19924;-87
2022/08/07 10:09:49;;;;;;;3.50;2.30;;;20.90;99.90;;;;;;5020032;28;20056;-85
2022/08/07 10:12:59;;;;;;;3.97;2.50;;;21.10;99.90;;;;;;5017995;28;20932;-85
2022/08/07 10:15:58;;;;;;;2.38;2.13;;;21.50;99.90;;;;;;5034309;28;20041;-85
2022/08/07 10:18:43;;;;;;;2.72;2.05;;;21.70;99.90;;;;;;5033567;28;20047;-85
2022/08/07 10:21:25;;;;;;;2.92;2.08;;;21.90;99.90;;;;;;5030507;28;20051;-86
2022/08/07 10:24:28;;;;;;;3.28;2.35;;;21.70;99.90;;;;;;5030085;28;20041;-86
2022/08/07 10:27:00;;;;;;;3.40;2.58;;;21.50;99.90;;;;;;5018770;28;20053;-86
2022/08/07 10:29:42;;;;;;;3.10;2.13;;;21.80;99.90;;;;;;5015308;28;20064;-86
2022/08/07 10:32:27;;;;;;;2.75;1.73;;;21.50;99.90;;;;;;5026513;28;20110;-86
2022/08/07 10:35:21;;;;;;;1.98;1.80;;;21.80;99.90;;;;;;5016492;28;20044;-86
2022/08/07 10:38:01;;;;;;;2.28;1.85;;;22.00;99.90;;;;;;5016581;28;20481;-85
2022/08/07 10:41:00;;;;;;;4.57;2.30;;;22.10;99.90;;;;;;5018102;28;20131;-85
2022/08/07 10:43:33;;;;;;;4.70;2.25;;;22.20;99.90;;;;;;5014826;28;20584;-84
2022/08/07 10:46:12;;;;;;;4.57;1.92;;;21.80;99.90;;;;;;5015412;28;20132;-86
2022/08/07 10:48:59;;;;;;;2.53;2.00;;;21.80;99.90;;;;;;5034134;28;20037;-85
2022/08/07 10:51:31;;;;;;;4.47;2.30;;;22.10;99.90;;;;;;5013876;28;20037;-85
2022/08/07 10:54:29;;;;;;;3.25;2.05;;;22.00;99.90;;;;;;5031783;28;20144;-83
2022/08/07 10:56:58;;;;;;;2.25;1.90;;;22.20;99.90;;;;;;4993701;28;20080;-83
2022/08/07 10:59:59;;;;;;;2.65;1.98;;;22.60;99.90;;;;;;5018116;28;20047;-85
2022/08/07 11:02:43;;;;;;;2.53;2.10;;;22.30;99.90;;;;;;5028546;28;20583;-84
2022/08/07 11:05:24;;;;;;;2.85;2.05;;;22.70;99.90;;;;;;5011244;28;20115;-85
2022/08/07 11:07:56;;;;;;;3.08;2.30;;;22.60;99.90;;;;;;5011619;28;20048;-85
2022/08/07 11:10:33;;;;;;;3.38;1.73;;;23.00;99.90;;;;;;5030002;28;20393;-84
2022/08/07 11:13:10;;;;;;;3.58;1.92;;;23.10;99.90;;;;;;5010743;28;20052;-86
2022/08/07 11:15:44;;;;;;;4.28;2.15;;;23.20;99.90;;;;;;5027743;28;20544;-86
2022/08/07 11:18:28;;;;;;;4.65;2.08;;;22.90;99.90;;;;;;5014773;28;20124;-85
2022/08/07 11:21:08;;;;;;;3.10;2.10;;;23.20;99.90;;;;;;5003565;28;20882;-85
2022/08/07 11:24:06;;;;;;;2.33;2.08;;;23.40;99.90;;;;;;5025424;28;20068;-85
2022/08/07 11:26:40;;;;;;;3.50;2.10;;;23.40;99.90;;;;;;5011772;28;20135;-86
2022/08/07 11:29:20;;;;;;;3.50;2.15;;;23.00;99.90;;;;;;5011545;28;20122;-85
2022/08/07 11:32:03;;;;;;;2.85;2.13;;;23.10;99.90;;;;;;5023559;28;20087;-85
2022/08/07 11:34:52;;;;;;;2.47;2.28;;;23.80;99.90;;;;;;5013210;28;20381;-85
2022/08/07 11:37:46;;;;;;;2.92;1.98;;;23.00;99.90;;;;;;5027266;28;20039;-85
2022/08/07 11:40:32;;;;;;;7.55;2.25;;;22.20;99.90;;;;;;5015603;28;20037;-85
2022/08/07 11:43:28;;;;;;;3.58;2.20;;;22.80;99.90;;;;;;5030175;28;20041;-86
2022/08/07 11:46:19;;;;;;;3.75;2.20;;;22.60;99.90;;;;;;5015498;28;20064;-86
2022/08/07 11:49:06;;;;;;;2.15;1.70;;;21.80;99.90;;;;;;5026644;28;20057;-86
2022/08/07 11:51:39;;;;;;;2.22;1.90;;;22.60;99.90;;;;;;5033971;28;20052;-86
2022/08/07 11:54:42;;;;;;;2.30;1.88;;;22.60;99.90;;;;;;5012749;28;20531;-86
2022/08/07 11:57:20;;;;;;;1.95;1.67;;;23.20;99.90;;;;;;5029086;28;20040;-85
2022/08/07 12:00:12;;;;;;;6.10;1.90;;;23.90;99.90;;;;;;5014567;28;20037;-86
2022/08/07 12:02:56;;;;;;;2.85;2.05;;;23.60;99.90;;;;;;5028579;28;20041;-85
2022/08/07 12:05:44;;;;;;;2.70;1.70;;;23.70;99.90;;;;;;5017966;28;20037;-85
2022/08/07 12:08:17;;;;;;;3.33;1.85;;;23.00;99.90;;;;;;5010797;28;20039;-86
2022/08/07 12:11:02;;;;;;;2.42;2.00;;;23.10;99.90;;;;;;5007359;28;20036;-86
2022/08/07 12:13:45;;;;;;;4.20;2.20;;;23.60;99.90;;;;;;5030506;28;22947;-85
2022/08/07 12:16:17;;;;;;;2.25;1.80;;;23.40;99.90;;;;;;5034519;28;20348;-85
2022/08/07 12:19:12;;;;;;;3.53;1.80;;;22.60;99.90;;;;;;5037584;28;20072;-85
2022/08/07 12:21:57;;;;;;;2.47;1.80;;;22.70;99.90;;;;;;5030983;28;20052;-85
2022/08/07 12:25:51;;;;;;;2.15;1.55;;;23.50;99.90;;;;;;5022049;28;20033;-85
2022/08/07 12:27:34;;;;;;;1.80;1.65;;;23.40;99.90;;;;;;5029189;28;20484;-86
2022/08/07 12:30:04;;;;;;;2.10;1.58;;;23.60;99.90;;;;;;5029779;28;20095;-85
2022/08/07 12:32:46;;;;;;;2.00;1.55;;;24.20;99.90;;;;;;5013551;28;20049;-87
2022/08/07 12:35:18;;;;;;;1.77;1.27;;;24.60;99.90;;;;;;5021432;28;20393;-86
2022/08/07 12:37:50;;;;;;;1.95;1.48;;;24.70;99.90;;;;;;5036130;28;20056;-86
2022/08/07 12:40:23;;;;;;;2.67;1.60;;;24.50;99.90;;;;;;5031695;28;20048;-86
2022/08/07 12:42:52;;;;;;;2.90;1.83;;;24.50;99.90;;;;;;5034341;28;20037;-86
2022/08/07 12:45:51;;;;;;;2.15;1.40;;;24.70;99.90;;;;;;5036382;28;20481;-85
2022/08/07 12:48:40;;;;;;;1.70;1.58;;;24.80;99.90;;;;;;5017625;28;20037;-85
2022/08/07 12:51:16;;;;;;;3.47;2.20;;;25.30;99.90;;;;;;5019864;28;20048;-86
2022/08/07 12:54:07;;;;;;;2.05;1.75;;;25.50;99.90;;;;;;5014738;28;20421;-85
2022/08/07 12:56:38;;;;;;;2.13;1.80;;;25.30;99.90;;;;;;5016281;28;20529;-86
2022/08/07 12:59:06;;;;;;;3.53;1.85;;;25.30;99.90;;;;;;5019635;28;20041;-86
2022/08/07 13:02:05;;;;;;;2.33;1.60;;;24.70;99.90;;;;;;5017867;28;20136;-86
2022/08/07 13:04:55;;;;;;;2.72;1.73;;;25.10;99.90;;;;;;5038024;28;20124;-86
2022/08/07 13:07:46;;;;;;;3.85;1.98;;;25.60;99.90;;;;;;5029903;28;20477;-85
2022/08/07 13:10:31;;;;;;;2.30;1.80;;;26.10;99.90;;;;;;5014627;28;20374;-85
2022/08/07 13:13:09;;;;;;;2.20;1.63;;;25.20;99.90;;;;;;5015648;28;20070;-86
2022/08/07 13:15:37;;;;;;;3.72;2.30;;;25.00;99.90;;;;;;5028348;28;20037;-86
2022/08/07 13:18:37;;;;;;;5.95;2.47;;;23.80;99.90;;;;;;5036259;28;20512;-86
2022/08/07 13:21:23;;;;;;;3.67;2.15;;;22.90;99.90;;;;;;5020210;28;20041;-86
2022/08/07 13:24:00;;;;;;;3.47;2.50;;;22.40;99.90;;;;;;5014241;28;20059;-85
2022/08/07 13:26:39;;;;;;;3.42;2.17;;;22.30;99.90;;;;;;5029701;28;20075;-85
2022/08/07 13:29:28;;;;;;;2.80;1.95;;;23.30;99.90;;;;;;5011300;28;20150;-86
2022/08/07 13:32:04;;;;;;;2.30;1.98;;;24.00;99.90;;;;;;5047324;28;20250;-86
2022/08/07 13:35:09;;;;;;;5.75;2.15;;;24.20;99.90;;;;;;5020744;28;20170;-85
2022/08/07 13:37:43;;;;;;;4.05;2.45;;;24.10;99.90;;;;;;5027727;28;20393;-86